Map

Track Data

SID SEASON NUMBER BASIN SUBBASIN NAME ISO_TIME NATURE LAT LON WMO_WIND WMO_PRES WMO_AGENCY TRACK_TYPE DIST2LAND LANDFALL IFLAG USA_AGENCY USA_ATCF_ID USA_LAT USA_LON USA_RECORD USA_STATUS USA_WIND USA_PRES USA_SSHS USA_R34_NE USA_R34_SE USA_R34_SW USA_R34_NW USA_R50_NE USA_R50_SE USA_R50_SW USA_R50_NW USA_R64_NE USA_R64_SE USA_R64_SW USA_R64_NW USA_POCI USA_ROCI USA_RMW USA_EYE TOKYO_LAT TOKYO_LON TOKYO_GRADE TOKYO_WIND TOKYO_PRES TOKYO_R50_DIR TOKYO_R50_LONG TOKYO_R50_SHORT TOKYO_R30_DIR TOKYO_R30_LONG TOKYO_R30_SHORT TOKYO_LAND CMA_LAT CMA_LON CMA_CAT CMA_WIND CMA_PRES HKO_LAT HKO_LON HKO_CAT HKO_WIND HKO_PRES NEWDELHI_LAT NEWDELHI_LON NEWDELHI_GRADE NEWDELHI_WIND NEWDELHI_PRES NEWDELHI_CI NEWDELHI_DP NEWDELHI_POCI REUNION_LAT REUNION_LON REUNION_TYPE REUNION_WIND REUNION_PRES REUNION_TNUM REUNION_CI REUNION_RMW REUNION_R34_NE REUNION_R34_SE REUNION_R34_SW REUNION_R34_NW REUNION_R50_NE REUNION_R50_SE REUNION_R50_SW REUNION_R50_NW REUNION_R64_NE REUNION_R64_SE REUNION_R64_SW REUNION_R64_NW BOM_LAT BOM_LON BOM_TYPE BOM_WIND BOM_PRES BOM_TNUM BOM_CI BOM_RMW BOM_R34_NE BOM_R34_SE BOM_R34_SW BOM_R34_NW BOM_R50_NE BOM_R50_SE BOM_R50_SW BOM_R50_NW BOM_R64_NE BOM_R64_SE BOM_R64_SW BOM_R64_NW BOM_ROCI BOM_POCI BOM_EYE BOM_POS_METHOD BOM_PRES_METHOD NADI_LAT NADI_LON NADI_CAT NADI_WIND NADI_PRES WELLINGTON_LAT WELLINGTON_LON WELLINGTON_WIND WELLINGTON_PRES DS824_LAT DS824_LON DS824_STAGE DS824_WIND DS824_PRES TD9636_LAT TD9636_LON TD9636_STAGE TD9636_WIND TD9636_PRES TD9635_LAT TD9635_LON TD9635_WIND TD9635_PRES TD9635_ROCI NEUMANN_LAT NEUMANN_LON NEUMANN_CLASS NEUMANN_WIND NEUMANN_PRES MLC_LAT MLC_LON MLC_CLASS MLC_WIND MLC_PRES USA_GUST BOM_GUST BOM_GUST_PER REUNION_GUST REUNION_GUST_PER USA_SEAHGT USA_SEARAD_NE USA_SEARAD_SE USA_SEARAD_SW USA_SEARAD_NW STORM_SPEED STORM_DIR
1956036S15145 1956 14 SP EA NOT_NAMED 1956-02-05 11:00:00 NR -14.6000 144.600 main 0 0 __________O___ -1 -14.6000 144.600 1 22 166
1956036S15145 1956 14 SP EA NOT_NAMED 1956-02-05 12:00:00 TS -14.9604 144.694 main 0 0 O________OP___ jtwc_sh SH191956 -15.0000 144.700 -1 -15.0000 144.700 TC -14.9208 144.688 1 20 165
1956036S15145 1956 14 SP EA NOT_NAMED 1956-02-05 15:00:00 TS -15.9033 144.972 main 0 0 P________PP___ SH191956 -15.9327 144.999 -1 -15.9327 144.999 TC -15.8641 144.937 1 19 166
1956036S15145 1956 14 SP EA NOT_NAMED 1956-02-05 18:00:00 TS -16.7753 145.172 main 0 0 O________OP___ jtwc_sh SH191956 -16.8000 145.200 -1 -16.8000 145.200 TC -16.7381 145.129 1 16 172
1956036S15145 1956 14 SP EA NOT_NAMED 1956-02-05 21:00:00 TS -17.5235 145.223 main 0 0 P________PP___ SH191956 -17.5398 145.225 -1 -17.5398 145.225 TC -17.4910 145.219 1 14 0
1956036S15145 1956 14 SP EA NOT_NAMED 1956-02-05 23:00:00 TS -17.9242 145.170 main 0 0 P________PO___ SH191956 -17.9363 145.155 -1 -17.9363 145.155 TC -17.9000 145.200 1 12 189
1956036S15145 1956 14 SP EA NOT_NAMED 1956-02-06 00:00:00 TS -18.0906 145.121 main 0 0 O________OP___ jtwc_sh SH191956 -18.1000 145.100 -1 -18.1000 145.100 TC -18.0718 145.162 1 9 205
1956036S15145 1956 14 SP EA NOT_NAMED 1956-02-06 03:00:00 TS -18.4563 144.909 main 0 0 P________PP___ SH191956 -18.4450 144.887 -1 -18.4450 144.887 TC -18.4790 144.952 1 8 217
1956036S15145 1956 14 SP EA NOT_NAMED 1956-02-06 06:00:00 TS -18.7290 144.616 main 0 0 O________OP___ jtwc_sh SH191956 -18.7000 144.600 -1 -18.7000 144.600 TC -18.7870 144.648 1 8 224
1956036S15145 1956 14 SP EA NOT_NAMED 1956-02-06 09:00:00 TS -19.0389 144.309 main 0 0 P________PP___ SH191956 -19.0200 144.307 -1 -19.0200 144.307 TC -19.0767 144.311 1 9 222
1956036S15145 1956 14 SP EA NOT_NAMED 1956-02-06 11:00:00 TS -19.2757 144.102 main 0 0 P________PO___ SH191956 -19.2636 144.103 -1 -19.2636 144.103 TC -19.3000 144.100 1 10 218
1956036S15145 1956 14 SP EA NOT_NAMED 1956-02-06 12:00:00 TS -19.4106 143.995 main 0 0 O________OP___ jtwc_sh SH191956 -19.4000 144.000 -1 -19.4000 144.000 TC -19.4318 143.986 1 11 216
1956036S15145 1956 14 SP EA NOT_NAMED 1956-02-06 15:00:00 TS -19.8559 143.652 main 0 0 P________PP___ SH191956 -19.8551 143.655 -1 -19.8551 143.655 TC -19.8575 143.646 1 11 210
1956036S15145 1956 14 SP EA NOT_NAMED 1956-02-06 18:00:00 TS -20.3835 143.391 main 0 0 O________OP___ jtwc_sh SH191956 -20.4000 143.400 -1 -20.4000 143.400 TC -20.3505 143.373 1 12 198
1956036S15145 1956 14 SP EA NOT_NAMED 1956-02-06 21:00:00 TS -20.9730 143.272 main 0 0 P________PP___ SH191956 -20.9897 143.281 -1 -20.9897 143.281 TC -20.9396 143.253 1 13 184
1956036S15145 1956 14 SP EA NOT_NAMED 1956-02-06 23:00:00 TS -21.4311 143.319 main 0 0 P________PO___ SH191956 -21.4467 143.328 -1 -21.4467 143.328 TC -21.4000 143.300 1 15 171
1956036S15145 1956 14 SP EA NOT_NAMED 1956-02-07 00:00:00 TS -21.6878 143.393 main 0 0 O________OP___ jtwc_sh SH191956 -21.7000 143.400 -1 -21.7000 143.400 TC -21.6635 143.380 1 18 159
1956036S15145 1956 14 SP EA NOT_NAMED 1956-02-07 03:00:00 TS -22.5519 143.793 main 0 0 P________PP___ SH191956 -22.5550 143.795 -1 -22.5550 143.795 TC -22.5458 143.790 1 20 153
1956036S15145 1956 14 SP EA NOT_NAMED 1956-02-07 06:00:00 TS -23.5032 144.397 main 0 0 O________OP___ jtwc_sh SH191956 -23.5000 144.400 -1 -23.5000 144.400 TC -23.5095 144.392 1 23 148
1956036S15145 1956 14 SP EA NOT_NAMED 1956-02-07 09:00:00 TS -24.4707 145.082 main 0 0 P________PP___ SH191956 -24.4650 145.070 -1 -24.4650 145.070 TC -24.4820 145.105 1 23 146
1956036S15145 1956 14 SP EA NOT_NAMED 1956-02-07 11:00:00 TS -25.0986 145.571 main 0 0 P________PO___ SH191956 -25.0978 145.556 -1 -25.0978 145.556 TC -25.1000 145.600 1 23 145
1956036S15145 1956 14 SP EA NOT_NAMED 1956-02-07 12:00:00 TS -25.3964 145.806 main 0 0 O________OP___ jtwc_sh SH191956 -25.4000 145.800 -1 -25.4000 145.800 TC -25.3893 145.819 1 21 144
1956036S15145 1956 14 SP EA NOT_NAMED 1956-02-07 15:00:00 TS -26.2383 146.502 main 0 0 P________PP___ SH191956 -26.2446 146.501 -1 -26.2446 146.501 TC -26.2256 146.504 1 20 142
1956036S15145 1956 14 SP EA NOT_NAMED 1956-02-07 18:00:00 TS -26.9998 147.205 main 0 0 O________OP___ jtwc_sh SH191956 -27.0000 147.200 -1 -27.0000 147.200 TC -26.9995 147.215 1 19 139
1956036S15145 1956 14 SP EA NOT_NAMED 1956-02-07 21:00:00 TS -27.7039 147.911 main 0 0 P________PP___ SH191956 -27.7096 147.900 -1 -27.7096 147.900 TC -27.6924 147.931 1 18 137
1956036S15145 1956 14 SP EA NOT_NAMED 1956-02-07 23:00:00 TS -28.1130 148.378 main 0 0 P________PO___ SH191956 -28.1195 148.367 -1 -28.1195 148.367 TC -28.1000 148.400 1 17 133
1956036S15145 1956 14 SP EA NOT_NAMED 1956-02-08 00:00:00 TS -28.2918 148.614 main 0 0 O________OP___ jtwc_sh SH191956 -28.3000 148.600 -1 -28.3000 148.600 TC -28.2754 148.642 1 16 126
1956036S15145 1956 14 SP EA NOT_NAMED 1956-02-08 03:00:00 TS -28.7286 149.332 main 0 0 P________PP___ SH191956 -28.7298 149.316 -1 -28.7298 149.316 TC -28.7262 149.363 1 15 124
1956036S15145 1956 14 SP EA NOT_NAMED 1956-02-08 06:00:00 TS -29.1048 150.015 main 0 0 O________OP___ jtwc_sh SH191956 -29.1000 150.000 -1 -29.1000 150.000 TC -29.1145 150.046 1 14 124
1956036S15145 1956 14 SP EA NOT_NAMED 1956-02-08 09:00:00 TS -29.5201 150.653 main 0 0 P________PP___ SH191956 -29.5274 150.653 -1 -29.5274 150.653 TC -29.5055 150.654 1 14 129
1956036S15145 1956 14 SP EA NOT_NAMED 1956-02-08 11:00:00 TS -29.8240 151.023 main 0 0 P________PO___ SH191956 -29.8360 151.034 -1 -29.8360 151.034 TC -29.8000 151.000 1 13 135
1956036S15145 1956 14 SP EA NOT_NAMED 1956-02-08 12:00:00 TS -29.9879 151.187 main 0 0 O________OP___ jtwc_sh SH191956 -30.0000 151.200 -1 -30.0000 151.200 TC -29.9637 151.160 1 13 144
1956036S15145 1956 14 SP EA NOT_NAMED 1956-02-08 15:00:00 TS -30.5007 151.596 main 0 0 P________PP___ SH191956 -30.5047 151.611 -1 -30.5047 151.611 TC -30.4927 151.566 1 13 151
1956036S15145 1956 14 SP EA NOT_NAMED 1956-02-08 18:00:00 TS -31.0976 151.891 main 0 0 O________OP___ jtwc_sh SH191956 -31.1000 151.900 -1 -31.1000 151.900 TC -31.0927 151.873 1 14 160
1956036S15145 1956 14 SP EA NOT_NAMED 1956-02-08 21:00:00 TS -31.7823 152.133 main 0 0 P________PP___ SH191956 -31.7825 152.152 -1 -31.7825 152.152 TC -31.7820 152.094 1 15 166
1956036S15145 1956 14 SP EA NOT_NAMED 1956-02-08 23:00:00 TS -32.3073 152.243 main 0 0 P________PO___ SH191956 -32.3110 152.264 -1 -32.3110 152.264 TC -32.3000 152.200 2 17 172
1956036S15145 1956 14 SP EA NOT_NAMED 1956-02-09 00:00:00 TS -32.5970 152.277 main 9 9 O________OP___ jtwc_sh SH191956 -32.6000 152.300 -1 -32.6000 152.300 TC -32.5911 152.230 2 19 178
1956036S15145 1956 14 SP EA NOT_NAMED 1956-02-09 03:00:00 TS -33.5675 152.295 main 72 72 P________PP___ SH191956 -33.5775 152.316 -1 -33.5775 152.316 TC -33.5477 152.252 2 20 179
1956036S15145 1956 14 SP EA NOT_NAMED 1956-02-09 06:00:00 TS -34.5894 152.281 main 113 113 O________OP___ jtwc_sh SH191956 -34.6000 152.300 -1 -34.6000 152.300 TC -34.5683 152.243 2 20 180
1956036S15145 1956 14 SP EA NOT_NAMED 1956-02-09 09:00:00 TS -35.5548 152.324 main 142 142 P________PP___ SH191956 -35.5447 152.341 -1 -35.5447 152.341 TC -35.5750 152.291 2 19 176
1956036S15145 1956 14 SP EA NOT_NAMED 1956-02-09 11:00:00 TS -36.1520 152.419 main 182 182 P________PO___ SH191956 -36.1279 152.428 -1 -36.1279 152.428 TC -36.2000 152.400 2 18 171
1956036S15145 1956 14 SP EA NOT_NAMED 1956-02-09 12:00:00 TS -36.4237 152.498 main 203 203 O________OP___ jtwc_sh SH191956 -36.4000 152.500 -1 -36.4000 152.500 TC -36.4712 152.495 2 16 162
1956036S15145 1956 14 SP EA NOT_NAMED 1956-02-09 15:00:00 TS -37.1611 152.829 main 238 238 P________PP___ SH191956 -37.1295 152.804 -1 -37.1295 152.804 TC -37.2244 152.881 2 16 155
1956036S15145 1956 14 SP EA NOT_NAMED 1956-02-09 18:00:00 TS -37.8374 153.333 main 286 286 O________OP___ jtwc_sh SH191956 -37.8000 153.300 -1 -37.8000 153.300 TC -37.9123 153.399 2 16 146
1956036S15145 1956 14 SP EA NOT_NAMED 1956-02-09 21:00:00 TS -38.5223 153.998 main 366 366 P________PP___ SH191956 -38.5001 153.983 -1 -38.5001 153.983 TC -38.5666 154.029 2 18 141
1956036S15145 1956 14 SP EA NOT_NAMED 1956-02-09 23:00:00 TS -38.9777 154.514 main 425 425 P________PO___ SH191956 -38.9666 154.521 -1 -38.9666 154.521 TC -39.0000 154.500 2 18 138
1956036S15145 1956 14 SP EA NOT_NAMED 1956-02-10 00:00:00 TS -39.2067 154.780 main 458 458 O________OP___ jtwc_sh SH191956 -39.2000 154.800 -1 -39.2000 154.800 TC -39.2202 154.741 2 19 137
1956036S15145 1956 14 SP EA NOT_NAMED 1956-02-10 03:00:00 TS -39.8953 155.602 main 553 553 P________PP___ SH191956 -39.9072 155.636 -1 -39.9072 155.636 TC -39.8714 155.535 2 19 137
1956036S15145 1956 14 SP EA NOT_NAMED 1956-02-10 06:00:00 TS -40.5758 156.468 main 657 657 O________OP___ jtwc_sh SH191956 -40.6000 156.500 -1 -40.6000 156.500 TC -40.5274 156.404 2 19 135
1956036S15145 1956 14 SP EA NOT_NAMED 1956-02-10 09:00:00 TS -41.2223 157.337 main 743 743 P________PP___ SH191956 -41.2269 157.353 -1 -41.2269 157.353 TC -41.2132 157.304 2 19 135
1956036S15145 1956 14 SP EA NOT_NAMED 1956-02-10 11:00:00 TS -41.6752 157.912 main 784 784 P________PO___ SH191956 -41.6628 157.918 -1 -41.6628 157.918 TC -41.7000 157.900 1 19 137
1956036S15145 1956 14 SP EA NOT_NAMED 1956-02-10 12:00:00 TS -41.9220 158.197 main 790 685 O________OP___ jtwc_sh SH191956 -41.9000 158.200 -1 -41.9000 158.200 TC -41.9551 158.193 1 20 141
1956036S15145 1956 14 SP EA NOT_NAMED 1956-02-10 15:00:00 TS -42.7358 159.047 main 685 578 P________PP___ SH191956 -42.7088 159.044 -1 -42.7088 159.044 TC -42.7629 159.051 1 21 144
1956036S15145 1956 14 SP EA NOT_NAMED 1956-02-10 18:00:00 TS -43.6117 159.895 main 571 471 O________OP___ jtwc_sh SH191956 -43.6000 159.900 -1 -43.6000 159.900 TC -43.6196 159.891 1 21 145
1956036S15145 1956 14 SP MM NOT_NAMED 1956-02-10 21:00:00 NR -44.5046 160.732 main 471 405 __________P___ SH191956 -1 TC -44.5046 160.732 1 22 146
1956036S15145 1956 14 SP MM NOT_NAMED 1956-02-10 23:00:00 NR -45.1000 161.300 main 405 __________O___ SH191956 -1 TC -45.1000 161.300 1 22 146

Digital Typhoon Data and Search

About IBTrACS Database

This database is a web-friendly format of International Best Track Archive for Climate Stewardship (IBTrACS), a global best track data archive curated by NOAA dating back to 1842.

Updated: 2021-10-25